createdAt,value
2016-05-20T00:02:19.728Z,63.48
2016-05-20T00:03:19.762Z,62.81
2016-05-20T00:05:19.798Z,63
2016-05-20T00:06:19.817Z,62.52
2016-05-20T00:07:34.023Z,63
2016-05-20T00:08:19.869Z,63.1
2016-05-20T00:09:19.731Z,63.1
2016-05-20T00:10:19.750Z,63.76
2016-05-20T00:11:19.939Z,62.9
2016-05-20T00:12:19.958Z,63.48
2016-05-20T00:13:19.991Z,63.76
2016-05-20T00:14:20.011Z,63.67
2016-05-20T00:16:20.063Z,63.67
2016-05-20T00:17:20.081Z,63.76
2016-05-20T00:18:20.099Z,64.02
2016-05-20T00:19:20.133Z,63.93
2016-05-20T00:20:19.995Z,63.26
2016-05-20T00:21:20.169Z,63.48
2016-05-20T00:22:20.188Z,63.57
2016-05-20T00:23:20.222Z,63.48
2016-05-20T00:24:20.240Z,63.39
2016-05-20T00:25:20.258Z,63.48
2016-05-20T00:26:20.276Z,63.64
2016-05-20T00:27:20.310Z,63.67
2016-05-20T00:28:20.329Z,63.29
2016-05-20T00:29:20.363Z,63.29
2016-05-20T00:30:20.382Z,63.35
2016-05-20T00:31:20.243Z,63.29
2016-05-20T00:32:20.418Z,63.39
2016-05-20T00:33:20.452Z,63.29
2016-05-20T00:34:20.471Z,63.26
2016-05-20T00:35:20.504Z,63.45
2016-05-20T00:36:20.367Z,63.45
2016-05-20T00:37:20.384Z,63.39
2016-05-20T00:38:20.559Z,63.57
2016-05-20T00:39:34.765Z,62.9
2016-05-20T00:40:20.611Z,63.57
2016-05-20T00:41:20.630Z,63.67
2016-05-20T00:42:20.647Z,63.93
2016-05-20T00:43:20.681Z,64.43
2016-05-20T00:44:20.701Z,64.4
2016-05-20T00:45:20.719Z,64.69
2016-05-20T00:46:20.752Z,64.78
2016-05-20T00:48:20.789Z,64.31
2016-05-20T00:50:20.841Z,64.22
2016-05-20T00:51:20.891Z,64.02
2016-05-20T00:52:20.894Z,64.02
2016-05-20T00:53:20.912Z,64.69
2016-05-20T00:54:21.758Z,64.88
2016-05-20T00:55:35.136Z,65.64
2016-05-20T00:56:20.982Z,66.6
2016-05-20T00:57:20.844Z,67.08
2016-05-20T00:58:21.019Z,66.31
2016-05-20T00:59:21.054Z,65.45
2016-05-20T01:00:21.071Z,64.78
2016-05-20T01:01:21.090Z,64.59
2016-05-20T01:02:21.124Z,64.88
2016-05-20T01:03:21.143Z,65.26
2016-05-20T01:04:21.160Z,65.26
2016-05-20T01:06:21.212Z,65.36
2016-05-20T01:07:21.231Z,65.55
2016-05-20T01:08:21.249Z,66.31
2016-05-20T01:09:21.642Z,66.6
2016-05-20T01:10:21.364Z,66.85
2016-05-20T01:11:35.506Z,66.85
2016-05-20T01:12:21.338Z,67.62
2016-05-20T01:13:21.373Z,67.81
2016-05-20T01:14:21.389Z,68.76
2016-05-20T01:15:21.408Z,69.24
2016-05-20T01:16:21.442Z,69.43
2016-05-20T01:17:21.461Z,69.24
2016-05-20T01:19:21.513Z,70.01
2016-05-20T01:20:21.531Z,69.62
2016-05-20T01:21:21.549Z,69.91
2016-05-20T01:22:21.583Z,70.1
2016-05-20T01:23:21.602Z,70.2
2016-05-20T01:24:21.666Z,69.91
2016-05-20T01:25:21.654Z,69.43
2016-05-20T01:26:21.672Z,69.91
2016-05-20T01:27:35.879Z,70.1
2016-05-20T01:28:21.725Z,70.1
2016-05-20T01:29:21.743Z,70.1
2016-05-20T01:30:21.762Z,69.72
2016-05-20T01:31:21.780Z,70.39
2016-05-20T01:32:21.813Z,70.1
2016-05-20T01:33:21.832Z,70.01
2016-05-20T01:34:21.851Z,70.29
2016-05-20T01:35:21.712Z,70.87
2016-05-20T01:36:21.918Z,70.77
2016-05-20T01:38:21.939Z,69.72
2016-05-20T01:39:21.973Z,69.62
2016-05-20T01:41:22.010Z,69.82
2016-05-20T01:42:36.216Z,69.82
2016-05-20T01:43:22.061Z,70.1
2016-05-20T01:44:21.925Z,70.1
2016-05-20T01:45:22.114Z,70.1
2016-05-20T01:46:22.133Z,70.1
2016-05-20T01:47:22.151Z,70.39
2016-05-20T01:48:22.185Z,70.67
2016-05-20T01:49:22.203Z,70.58
2016-05-20T01:51:22.255Z,70.01
2016-05-20T01:52:22.274Z,70.01
2016-05-20T01:53:22.291Z,70.01
2016-05-20T01:54:22.544Z,70.1
2016-05-20T01:55:22.344Z,70.29
2016-05-20T01:56:22.207Z,70.29
2016-05-20T01:57:22.380Z,70.77
2016-05-20T01:58:22.258Z,70.67
2016-05-20T01:59:22.433Z,70.77
2016-05-20T02:00:22.452Z,70.1
2016-05-20T02:01:22.470Z,70.29
2016-05-20T02:02:22.348Z,70.29
2016-05-20T02:03:22.521Z,70.29
2016-05-20T02:04:22.540Z,70.58
2016-05-20T02:05:22.559Z,70.29
2016-05-20T02:06:22.436Z,69.53
2016-05-20T02:07:22.611Z,70.01
2016-05-20T02:09:22.663Z,70.2
2016-05-20T02:11:22.701Z,70.67
2016-05-20T02:12:22.562Z,70.48
2016-05-20T02:13:22.753Z,70.29
2016-05-20T02:14:36.958Z,70.67
2016-05-20T02:15:22.803Z,70.29
2016-05-20T02:16:22.823Z,70.39
2016-05-20T02:18:22.859Z,70.67
2016-05-20T02:19:22.894Z,70.67
2016-05-20T02:20:22.927Z,71.06
2016-05-20T02:21:22.930Z,71.15
2016-05-20T02:22:22.947Z,70.77
2016-05-20T02:23:22.826Z,71.06
2016-05-20T02:24:22.844Z,70.67
2016-05-20T02:26:23.053Z,70.48
2016-05-20T02:27:22.915Z,70.48
2016-05-20T02:28:23.089Z,70.39
2016-05-20T02:29:23.123Z,71.15
2016-05-20T02:30:37.329Z,71.25
2016-05-20T02:31:23.160Z,71.82
2016-05-20T02:32:23.178Z,71.88
2016-05-20T02:33:23.212Z,72.64
2016-05-20T02:34:23.229Z,72.55
2016-05-20T02:35:23.248Z,72.26
2016-05-20T02:36:23.282Z,72.55
2016-05-20T02:37:23.301Z,71.78
2016-05-20T02:38:23.366Z,71.5
2016-05-20T02:39:23.651Z,72.2
2016-05-20T02:40:23.371Z,71.88
2016-05-20T02:41:23.390Z,71.31
2016-05-20T02:42:23.409Z,71.92
2016-05-20T02:43:23.489Z,71.5
2016-05-20T02:44:23.586Z,71.72
2016-05-20T02:45:23.494Z,71.15
2016-05-20T02:46:37.684Z,71.06
2016-05-20T02:47:23.531Z,70.77
2016-05-20T02:48:23.550Z,69.24
2016-05-20T02:49:23.567Z,69.43
2016-05-20T02:50:23.602Z,69.24
2016-05-20T02:51:23.620Z,68.96
2016-05-20T02:52:23.639Z,69.91
2016-05-20T02:53:23.656Z,69.62
2016-05-20T02:54:23.691Z,69.43
2016-05-20T02:55:23.709Z,70.36
2016-05-20T02:56:23.727Z,70.1
2016-05-20T02:57:23.761Z,69.15
2016-05-20T02:58:23.779Z,69.43
2016-05-20T02:59:23.797Z,69.43
2016-05-20T03:00:23.832Z,69.53
2016-05-20T03:01:23.694Z,68.76
2016-05-20T03:02:38.056Z,69.34
2016-05-20T03:03:23.901Z,69.05
2016-05-20T03:04:23.921Z,69.53
2016-05-20T03:05:23.938Z,68.96
2016-05-20T03:06:23.957Z,68.96
2016-05-20T03:07:23.991Z,69.34
2016-05-20T03:08:24.009Z,69.43
2016-05-20T03:10:24.062Z,69.78
2016-05-20T03:11:23.908Z,70.67
2016-05-20T03:12:23.957Z,70.54
2016-05-20T03:13:24.147Z,70.07
2016-05-20T03:14:24.150Z,70.16
2016-05-20T03:15:24.013Z,69.87
2016-05-20T03:16:24.187Z,70.45
2016-05-20T03:17:38.392Z,69.78
2016-05-20T03:18:24.240Z,69.97
2016-05-20T03:19:24.258Z,69.87
2016-05-20T03:20:24.275Z,69.78
2016-05-20T03:21:24.153Z,69.97
2016-05-20T03:22:24.172Z,70.16
2016-05-20T03:23:24.346Z,69.59
2016-05-20T03:24:24.224Z,70.16
2016-05-20T03:25:24.243Z,70.16
2016-05-20T03:26:24.260Z,69.97
2016-05-20T03:28:24.469Z,70.1
2016-05-20T03:29:24.488Z,69.72
2016-05-20T03:30:24.506Z,70.2
2016-05-20T03:31:24.524Z,69.72
2016-05-20T03:32:24.558Z,69.72
2016-05-20T03:33:24.576Z,69.72
2016-05-20T03:34:24.438Z,69.34
2016-05-20T03:35:24.629Z,69.05
2016-05-20T03:36:24.646Z,69.24
2016-05-20T03:37:24.665Z,69.43
2016-05-20T03:38:24.684Z,69.91
2016-05-20T03:39:24.562Z,69.05
2016-05-20T03:40:24.736Z,69.15
2016-05-20T03:41:24.754Z,69.24
2016-05-20T03:42:24.788Z,68.76
2016-05-20T03:44:24.825Z,68.86
2016-05-20T03:45:24.859Z,68.7
2016-05-20T03:46:24.877Z,68.04
2016-05-20T03:47:24.895Z,67.94
2016-05-20T03:48:24.757Z,68.23
2016-05-20T03:49:39.119Z,68.13
2016-05-20T03:50:24.966Z,68.32
2016-05-20T03:51:24.984Z,67.84
2016-05-20T03:52:25.019Z,67.55
2016-05-20T03:53:25.037Z,67.75
2016-05-20T03:54:25.070Z,67.55
2016-05-20T03:55:25.089Z,67.46
2016-05-20T03:56:25.108Z,66.92
2016-05-20T03:57:25.125Z,67.11
2016-05-20T03:58:25.144Z,67.11
2016-05-20T03:59:25.177Z,66.73
2016-05-20T04:00:25.196Z,67.02
2016-05-20T04:01:25.230Z,66.63
2016-05-20T04:02:25.233Z,66.63
2016-05-20T04:03:25.266Z,66.06
2016-05-20T04:04:25.285Z,65.68
2016-05-20T04:05:39.491Z,65.48
2016-05-20T04:06:25.338Z,65.58
2016-05-20T04:07:25.371Z,66
2016-05-20T04:08:25.373Z,65.61
2016-05-20T04:09:25.408Z,65.33
2016-05-20T04:10:25.426Z,66
2016-05-20T04:11:25.445Z,65.23
2016-05-20T04:12:25.462Z,65.81
2016-05-20T04:13:25.496Z,65.71
2016-05-20T04:15:25.534Z,65.71
2016-05-20T04:16:25.412Z,65.9
2016-05-20T04:17:25.429Z,66.09
2016-05-20T04:18:25.604Z,66.19
2016-05-20T04:19:25.638Z,66.38
2016-05-20T04:20:25.656Z,66.76
2016-05-20T04:21:39.862Z,66.67
2016-05-20T04:22:25.708Z,66.76
2016-05-20T04:23:25.727Z,66.76
2016-05-20T04:24:25.605Z,66.96
2016-05-20T04:25:25.763Z,66.57
2016-05-20T04:26:25.797Z,67.05
2016-05-20T04:27:25.815Z,67.14
2016-05-20T04:28:25.833Z,67.24
2016-05-20T04:29:25.869Z,67.24
2016-05-20T04:30:25.886Z,67.05
2016-05-20T04:31:25.905Z,67.14
2016-05-20T04:32:25.766Z,66.7
2016-05-20T04:33:25.957Z,66.96
2016-05-20T04:34:25.975Z,66.89
2016-05-20T04:35:26.009Z,66.99
2016-05-20T04:36:26.027Z,67.08
2016-05-20T04:37:40.232Z,67.27
2016-05-20T04:38:25.908Z,67.47
2016-05-20T04:39:26.317Z,67.24
2016-05-20T04:40:26.116Z,67.18
2016-05-20T04:41:26.151Z,66.99
2016-05-20T04:42:26.168Z,67.08
2016-05-20T04:43:26.187Z,66.96
2016-05-20T04:44:26.205Z,66.89
2016-05-20T04:45:26.239Z,67.66
2016-05-20T04:46:26.257Z,67.37
2016-05-20T04:47:26.275Z,67.56
2016-05-20T04:48:26.309Z,67.56
2016-05-20T04:49:26.328Z,67.37
2016-05-20T04:50:26.345Z,67.94
2016-05-20T04:51:26.381Z,67.76
2016-05-20T04:52:40.586Z,67.85
2016-05-20T04:53:26.417Z,67.76
2016-05-20T04:54:26.498Z,67.85
2016-05-20T04:56:26.486Z,67.41
2016-05-20T04:58:26.539Z,67.69
2016-05-20T04:59:26.574Z,67.21
2016-05-20T05:00:26.591Z,67.02
2016-05-20T05:01:26.611Z,66.74
2016-05-20T05:02:26.627Z,66.83
2016-05-20T05:03:26.646Z,66.83
2016-05-20T05:04:26.681Z,67.21
2016-05-20T05:05:26.699Z,67.11
2016-05-20T05:06:26.733Z,67.54
2016-05-20T05:07:26.751Z,67.54
2016-05-20T05:08:26.769Z,67.25
2016-05-20T05:09:27.476Z,67.15
2016-05-20T05:10:26.665Z,67.05
2016-05-20T05:11:26.840Z,66.77
2016-05-20T05:12:26.858Z,66.58
2016-05-20T05:13:26.892Z,66.96
2016-05-20T05:14:26.910Z,66.86
2016-05-20T05:15:26.945Z,66.96
2016-05-20T05:16:26.963Z,66.67
2016-05-20T05:17:26.981Z,66.38
2016-05-20T05:18:27.015Z,66.38
2016-05-20T05:19:27.034Z,65.94
2016-05-20T05:20:27.052Z,65.65
2016-05-20T05:21:27.070Z,65.46
2016-05-20T05:22:27.103Z,65.46
2016-05-20T05:23:27.139Z,65.84
2016-05-20T05:24:41.328Z,65.84
2016-05-20T05:25:27.174Z,65.46
2016-05-20T05:26:27.192Z,65.36
2016-05-20T05:27:27.211Z,64.79
2016-05-20T05:28:27.245Z,64.98
2016-05-20T05:29:27.280Z,64.69
2016-05-20T05:30:27.297Z,65.17
2016-05-20T05:31:27.316Z,64.63
2016-05-20T05:33:27.353Z,64.25
2016-05-20T05:34:27.386Z,63.57
2016-05-20T05:35:27.405Z,63.76
2016-05-20T05:36:27.438Z,63.48
2016-05-20T05:37:27.457Z,63.57
2016-05-20T05:38:27.475Z,63.48
2016-05-20T05:40:41.700Z,62.9
2016-05-20T05:41:27.546Z,62.81
2016-05-20T05:42:27.564Z,62.81
2016-05-20T05:43:27.599Z,62.55
2016-05-20T05:44:27.459Z,61.88
2016-05-20T05:45:27.635Z,61.78
2016-05-20T05:46:27.512Z,62.07
2016-05-20T05:47:27.687Z,61.11
2016-05-20T05:50:27.757Z,61.88
2016-05-20T05:51:27.792Z,61.49
2016-05-20T05:52:27.809Z,61.88
2016-05-20T05:53:27.828Z,61.69
2016-05-20T05:54:27.862Z,61.98
2016-05-20T05:55:27.724Z,61.11
2016-05-20T05:56:42.087Z,61.4
2016-05-20T05:57:27.933Z,61.3
2016-05-20T05:58:27.964Z,61.02
2016-05-20T05:59:28.043Z,61.21
2016-05-20T06:00:28.105Z,60.63
2016-05-20T06:01:28.169Z,60.08
2016-05-20T06:02:28.247Z,58.84
2016-05-20T06:04:28.335Z,55.27
2016-05-20T06:05:28.386Z,52.63
2016-05-20T06:07:28.470Z,49.12
2016-05-20T06:09:28.541Z,47.24
2016-05-20T06:10:28.565Z,46.4
2016-05-20T06:11:28.590Z,45.43
2016-05-20T06:12:42.816Z,44.01
2016-05-20T06:13:28.495Z,43.64
2016-05-20T06:14:28.531Z,43.45
2016-05-20T06:15:28.707Z,42.29
2016-05-20T06:16:28.744Z,42.02
2016-05-20T06:17:28.780Z,40.98
2016-05-20T06:18:28.800Z,40.69
2016-05-20T06:19:28.834Z,39.45
2016-05-20T06:20:28.854Z,39.18
2016-05-20T06:22:28.783Z,39.28
2016-05-20T06:23:28.958Z,38.41
2016-05-20T06:24:28.991Z,38.99
2016-05-20T06:25:29.011Z,39.26
2016-05-20T06:26:29.030Z,39.62
2016-05-20T06:27:43.251Z,39.74
2016-05-20T06:28:29.098Z,39.36
2016-05-20T06:29:29.116Z,38.79
2016-05-20T06:30:29.150Z,38.12
2016-05-20T06:31:29.028Z,37.07
2016-05-20T06:32:29.218Z,38.02
2016-05-20T06:33:29.252Z,38.29
2016-05-20T06:34:29.270Z,38.68
2016-05-20T06:35:29.305Z,37.92
2016-05-20T06:36:29.183Z,36.1
2016-05-20T06:37:29.356Z,35.46
2016-05-20T06:38:29.391Z,35.09
2016-05-20T06:39:29.441Z,34.7
2016-05-20T06:40:29.802Z,34.59
2016-05-20T06:41:29.491Z,34.59
2016-05-20T06:42:29.511Z,34.41
2016-05-20T06:43:29.544Z,34.01
2016-05-20T06:44:29.579Z,33.64
2016-05-20T06:46:29.646Z,33.25
2016-05-20T06:47:29.680Z,32.78
2016-05-20T06:48:29.698Z,32.59
2016-05-20T06:49:29.732Z,32.59
2016-05-20T06:50:29.766Z,32.47
2016-05-20T06:51:29.801Z,31.81
2016-05-20T06:52:29.834Z,30.87
2016-05-20T06:53:29.696Z,30.51
2016-05-20T06:54:30.012Z,29.83
2016-05-20T06:55:29.921Z,29.28
2016-05-20T06:56:29.954Z,28.11
2016-05-20T06:57:29.989Z,28.42
2016-05-20T06:58:30.023Z,29.57
2016-05-20T06:59:44.244Z,29.35
2016-05-20T07:00:30.090Z,30.02
2016-05-20T07:01:30.109Z,30.02
2016-05-20T07:02:30.142Z,30.69
2016-05-20T07:03:30.192Z,31.73
2016-05-20T07:04:30.210Z,32.49
2016-05-20T07:05:30.244Z,32.1
2016-05-20T07:06:30.138Z,32.7
2016-05-20T07:07:30.312Z,32.39
2016-05-20T07:08:30.346Z,32.97
2016-05-20T07:09:30.380Z,32.49
2016-05-20T07:10:30.258Z,32.59
2016-05-20T07:11:30.448Z,33.17
2016-05-20T07:12:30.482Z,34.7
2016-05-20T07:13:30.344Z,35.15
2016-05-20T07:14:30.550Z,35.44
2016-05-20T07:15:44.756Z,35.15
2016-05-20T07:16:30.602Z,35.93
2016-05-20T07:17:30.636Z,36.8
2016-05-20T07:18:30.671Z,37.07
2016-05-20T07:19:30.688Z,37.05
2016-05-20T07:20:30.721Z,37.92
2016-05-20T07:21:30.756Z,37.81
2016-05-20T07:22:30.634Z,40.01
2016-05-20T07:23:30.809Z,40.28
2016-05-20T07:24:31.373Z,40.57
2016-05-20T07:25:30.876Z,40.09
2016-05-20T07:26:30.910Z,40.28
2016-05-20T07:28:30.806Z,40.75
2016-05-20T07:29:30.996Z,40.92
2016-05-20T07:30:30.890Z,41.96
2016-05-20T07:31:45.237Z,41.98
2016-05-20T07:32:31.098Z,42.18
2016-05-20T07:33:31.117Z,42.08
2016-05-20T07:34:31.135Z,41.98
2016-05-20T07:35:31.169Z,41.88
2016-05-20T07:37:31.221Z,42.66
2016-05-20T07:38:31.255Z,42.46
2016-05-20T07:39:31.289Z,42.05
2016-05-20T07:40:31.260Z,41.88
2016-05-20T07:41:31.341Z,41.33
2016-05-20T07:42:31.375Z,40.75
2016-05-20T07:43:31.238Z,39.87
2016-05-20T07:45:31.446Z,37.88
2016-05-20T07:46:31.480Z,37.23
2016-05-20T07:47:45.685Z,35.31
2016-05-20T07:48:31.532Z,34.01
2016-05-20T07:49:31.566Z,32.57
2016-05-20T07:50:31.444Z,31.53
2016-05-20T07:51:31.619Z,31.62
2016-05-20T07:52:31.651Z,31.34
2016-05-20T07:54:32.267Z,33.23
2016-05-20T07:55:31.598Z,33.62
2016-05-20T07:56:31.615Z,33.52
2016-05-20T07:57:31.806Z,33.52
2016-05-20T07:58:31.840Z,33.34
2016-05-20T07:59:37.562Z,32.76
2016-05-20T08:01:31.942Z,31.34
2016-05-20T08:02:46.148Z,30.77
2016-05-20T08:03:31.992Z,30.48
2016-05-20T08:04:32.025Z,30.11
2016-05-20T08:05:32.059Z,29.82
2016-05-20T08:06:32.093Z,28.96
2016-05-20T08:07:36.239Z,28.09
2016-05-20T08:08:32.161Z,28.2
2016-05-20T08:09:32.023Z,28.2
2016-05-20T08:10:32.903Z,28.39
2016-05-20T08:11:32.091Z,27.33
2016-05-20T08:12:32.281Z,27.33
2016-05-20T08:13:32.316Z,27.62
2016-05-20T08:14:32.349Z,27.23
2016-05-20T08:15:32.383Z,27.23
2016-05-20T08:16:32.417Z,26.36
2016-05-20T08:17:45.829Z,26.43
2016-05-20T08:18:32.485Z,26.44
2016-05-20T08:19:32.503Z,25.08
2016-05-20T08:20:33.508Z,25.2
2016-05-20T08:21:37.074Z,24.12
2016-05-20T08:22:35.435Z,24.9
2016-05-20T08:24:32.516Z,24.43
2016-05-20T08:25:37.632Z,24.33
2016-05-20T08:26:32.601Z,24.51
2016-05-20T08:27:32.774Z,24.23
2016-05-20T08:28:32.824Z,23.66
2016-05-20T08:29:32.858Z,23.38
2016-05-20T08:30:33.892Z,22.97
2016-05-20T08:31:32.754Z,22.79
2016-05-20T08:32:32.959Z,22.41
2016-05-20T08:33:32.979Z,22.31
2016-05-20T08:34:47.203Z,22.88
2016-05-20T08:35:33.046Z,23.27
2016-05-20T08:36:37.723Z,23.25
2016-05-20T08:37:33.114Z,23.55
2016-05-20T08:38:33.148Z,22.97
2016-05-20T08:39:33.541Z,22.97
2016-05-20T08:40:33.059Z,22.77
2016-05-20T08:41:33.719Z,22.97
2016-05-20T08:42:33.284Z,22.39
2016-05-20T08:43:33.318Z,22.1
2016-05-20T08:44:33.352Z,22.49
2016-05-20T08:46:33.419Z,21.83
2016-05-20T08:47:33.453Z,22.41
2016-05-20T08:48:33.488Z,22.31
2016-05-20T08:49:33.506Z,22.14
2016-05-20T08:50:47.730Z,21.64
2016-05-20T08:51:33.589Z,20.68
2016-05-20T08:52:33.452Z,20.98
2016-05-20T08:53:33.641Z,21.94
2016-05-20T08:54:34.269Z,22.5
2016-05-20T08:55:33.709Z,22.41
2016-05-20T08:56:33.760Z,22.41
2016-05-20T08:57:33.621Z,22.13
2016-05-20T08:58:33.811Z,22.89
2016-05-20T08:59:33.846Z,23.85
2016-05-20T09:02:33.947Z,25.07
2016-05-20T09:03:33.981Z,25.46
2016-05-20T09:04:34.046Z,25.64
2016-05-20T09:05:34.049Z,26.31
2016-05-20T09:06:48.272Z,26.49
2016-05-20T09:07:34.116Z,26.86
2016-05-20T09:08:34.167Z,26.67
2016-05-20T09:09:34.184Z,25.71
2016-05-20T09:10:34.219Z,23.87
2016-05-20T09:11:34.253Z,23.96
2016-05-20T09:12:34.114Z,24.73
2016-05-20T09:13:34.305Z,24.24
2016-05-20T09:14:34.339Z,24.26
2016-05-20T09:15:34.372Z,23.97
2016-05-20T09:16:34.406Z,23.5
2016-05-20T09:17:34.441Z,23.52
2016-05-20T09:18:34.475Z,22.16
2016-05-20T09:19:34.509Z,22.93
2016-05-20T09:20:34.542Z,22.74
2016-05-20T09:21:34.608Z,22.74
2016-05-20T09:22:48.785Z,23.8
2016-05-20T09:23:34.691Z,23.5
2016-05-20T09:24:34.663Z,22.83
2016-05-20T09:25:34.805Z,23.22
2016-05-20T09:26:34.730Z,23.79
2016-05-20T09:27:34.764Z,23.32
2016-05-20T09:28:34.799Z,22.64
2016-05-20T09:29:34.832Z,22.26
2016-05-20T09:30:34.710Z,21.3
2016-05-20T09:32:34.918Z,20.72
2016-05-20T09:33:34.796Z,20.53
2016-05-20T09:34:34.987Z,20.24
2016-05-20T09:35:35.020Z,20.83
2016-05-20T09:36:34.914Z,20.14
2016-05-20T09:37:49.278Z,19.96
2016-05-20T09:40:35.283Z,20.04
2016-05-20T09:41:35.223Z,20.73
2016-05-20T09:42:35.258Z,20.53
2016-05-20T09:43:35.136Z,20.23
2016-05-20T09:44:35.311Z,20.62
2016-05-20T09:45:35.344Z,20.04
2016-05-20T09:46:35.378Z,20.04
2016-05-20T09:47:35.411Z,19.67
2016-05-20T09:48:35.446Z,19.86
2016-05-20T09:49:35.324Z,19.96
2016-05-20T09:51:35.547Z,20.06
2016-05-20T09:52:35.582Z,19.76
2016-05-20T09:53:35.616Z,20.16
2016-05-20T09:54:35.633Z,20.25
2016-05-20T09:55:35.699Z,20.45
2016-05-20T09:56:35.701Z,20.63
2016-05-20T09:57:35.580Z,20.63
2016-05-20T09:58:35.769Z,21.02
2016-05-20T10:00:35.837Z,21.39
2016-05-20T10:01:35.871Z,21.67
2016-05-20T10:03:35.940Z,22.14
2016-05-20T10:04:35.973Z,23.41
2016-05-20T10:05:35.835Z,23.58
2016-05-20T10:06:36.026Z,23.2
2016-05-20T10:07:36.060Z,22.44
2016-05-20T10:08:36.093Z,21.47
2016-05-20T10:09:50.317Z,20.72
2016-05-20T10:10:36.645Z,20.53
2016-05-20T10:11:36.195Z,20.53
2016-05-20T10:12:36.229Z,21.39
2016-05-20T10:13:36.247Z,21.29
2016-05-20T10:14:36.281Z,21.39
2016-05-20T10:15:36.315Z,21.77
2016-05-20T10:16:36.349Z,21
2016-05-20T10:17:36.399Z,20.81
2016-05-20T10:18:36.417Z,21.5
2016-05-20T10:19:36.450Z,22.06
2016-05-20T10:20:36.469Z,21.95
2016-05-20T10:21:36.519Z,22.52
2016-05-20T10:22:36.380Z,22.71
2016-05-20T10:23:36.571Z,21.65
2016-05-20T10:24:36.605Z,20.68
2016-05-20T10:25:50.813Z,20.22
2016-05-20T10:26:36.673Z,19.65
2016-05-20T10:28:36.724Z,20.9
2016-05-20T10:29:36.759Z,20.23
2016-05-20T10:30:36.793Z,20.81
2016-05-20T10:31:36.827Z,20.9
2016-05-20T10:32:36.860Z,20.8
2016-05-20T10:33:36.723Z,20.6
2016-05-20T10:34:36.929Z,20.71
2016-05-20T10:35:36.807Z,20.9
2016-05-20T10:36:36.981Z,20.9
2016-05-20T10:37:37.015Z,20.8
2016-05-20T10:38:37.049Z,20.71
2016-05-20T10:39:37.067Z,20.99
2016-05-20T10:40:37.242Z,21
2016-05-20T10:41:51.325Z,20.42
2016-05-20T10:42:37.169Z,20.71
2016-05-20T10:43:37.204Z,20.7
2016-05-20T10:44:37.236Z,20.78
2016-05-20T10:45:37.287Z,20.68
2016-05-20T10:46:37.290Z,20.39
2016-05-20T10:47:37.355Z,20.86
2016-05-20T10:48:37.358Z,20.87
2016-05-20T10:50:37.409Z,19.73
2016-05-20T10:51:37.458Z,20.1
2016-05-20T10:52:37.634Z,20.31
2016-05-20T10:53:37.511Z,19.82
2016-05-20T10:54:37.405Z,19.24
2016-05-20T10:56:37.535Z,19.63
2016-05-20T10:57:51.838Z,19.25
2016-05-20T10:58:37.666Z,18.77
2016-05-20T10:59:37.700Z,18.77
2016-05-20T11:00:37.732Z,18.68
2016-05-20T11:01:37.767Z,19.24
2016-05-20T11:02:37.801Z,19.06
2016-05-20T11:03:37.882Z,18.66
2016-05-20T11:04:37.916Z,18.58
2016-05-20T11:05:37.887Z,19.64
2016-05-20T11:06:37.765Z,19.34
2016-05-20T11:08:37.973Z,19.13
2016-05-20T11:09:38.007Z,20.2
2016-05-20T11:10:38.042Z,20.01
2016-05-20T11:11:38.138Z,19.53
2016-05-20T11:12:52.284Z,19.24
2016-05-20T11:13:38.909Z,19.73
2016-05-20T11:14:38.177Z,20.11
2016-05-20T11:15:38.195Z,19.71
2016-05-20T11:17:38.311Z,21.33
2016-05-20T11:18:38.297Z,21.24
2016-05-20T11:20:38.428Z,20.95
2016-05-20T11:21:38.258Z,20.85
2016-05-20T11:22:38.464Z,20.47
2016-05-20T11:23:39.529Z,20.19
2016-05-20T11:24:38.469Z,20.08
2016-05-20T11:25:38.503Z,20.68
2016-05-20T11:26:38.460Z,20.68
2016-05-20T11:27:38.618Z,20.19
2016-05-20T11:28:38.605Z,19.8
2016-05-20T11:29:38.639Z,19.23
2016-05-20T11:30:38.658Z,18.84
2016-05-20T11:31:38.692Z,18.94
2016-05-20T11:32:38.726Z,19.32
2016-05-20T11:33:38.744Z,19.6
2016-05-20T11:34:38.840Z,20.09
2016-05-20T11:35:38.812Z,19.04
2016-05-20T11:36:38.846Z,18.74
2016-05-20T11:37:38.707Z,19.71
2016-05-20T11:38:38.898Z,19.42
2016-05-20T11:39:38.931Z,18.85
2016-05-20T11:40:38.965Z,18.95
2016-05-20T11:41:39.000Z,19.04
2016-05-20T11:42:38.893Z,19.14
2016-05-20T11:43:39.051Z,18.85
2016-05-20T11:44:53.261Z,19.13
2016-05-20T11:45:39.120Z,18.45
2016-05-20T11:46:39.138Z,19.12
2016-05-20T11:47:39.172Z,19.22
2016-05-20T11:48:39.206Z,19.22
2016-05-20T11:49:39.240Z,19.22
2016-05-20T11:50:39.258Z,19.12
2016-05-20T11:51:39.293Z,18.64
2016-05-20T11:52:39.325Z,19.22
2016-05-20T11:54:39.378Z,20.18
2016-05-20T11:55:39.413Z,20.08
2016-05-20T11:57:39.480Z,19.22
2016-05-20T11:58:39.499Z,19.12
2016-05-20T11:59:39.611Z,18.74
2016-05-20T12:00:53.757Z,19.23
2016-05-20T12:01:39.444Z,19.04
2016-05-20T12:02:39.619Z,19.32
2016-05-20T12:03:39.652Z,19.42
2016-05-20T12:04:39.562Z,19.71
2016-05-20T12:05:39.549Z,19.23
2016-05-20T12:06:39.738Z,19.22
2016-05-20T12:07:39.788Z,19.12
2016-05-20T12:09:39.841Z,19.02
2016-05-20T12:10:39.874Z,19.61
2016-05-20T12:11:39.893Z,19.9
2016-05-20T12:12:39.927Z,19.32
2016-05-20T12:13:40.571Z,19.8
2016-05-20T12:14:39.979Z,19.32
2016-05-20T12:15:40.012Z,18.55
2016-05-20T12:16:54.222Z,19.7
2016-05-20T12:17:40.065Z,19.89
2016-05-20T12:18:40.100Z,20.18
2016-05-20T12:19:39.977Z,20.37
2016-05-20T12:20:40.167Z,20.46
2016-05-20T12:21:40.185Z,20.46
2016-05-20T12:22:40.063Z,20.37
2016-05-20T12:23:40.253Z,20.46
2016-05-20T12:24:40.287Z,19.88
2016-05-20T12:25:40.822Z,20.67
2016-05-20T12:26:40.183Z,19.99
2016-05-20T12:27:40.374Z,19.79
2016-05-20T12:28:40.392Z,20.19
2016-05-20T12:29:40.425Z,19.81
2016-05-20T12:30:40.460Z,18.74
2016-05-20T12:31:40.494Z,18.84
2016-05-20T12:32:54.702Z,19.04
2016-05-20T12:34:40.580Z,18.45
2016-05-20T12:35:40.614Z,19.22
2016-05-20T12:36:40.632Z,19.12
2016-05-20T12:37:40.666Z,19.8
2016-05-20T12:38:40.699Z,19.42
2016-05-20T12:40:40.752Z,19.22
2016-05-20T12:41:40.786Z,19.89
2016-05-20T12:42:42.555Z,19.98
2016-05-20T12:43:40.838Z,20.65
2016-05-20T12:44:40.873Z,19.68
2016-05-20T12:45:40.906Z,19.68
2016-05-20T12:46:40.925Z,19.21
2016-05-20T12:47:55.148Z,18.73
2016-05-20T12:48:40.992Z,18.83
2016-05-20T12:49:41.026Z,19.22
2016-05-20T12:50:41.045Z,18.55
2016-05-20T12:51:41.079Z,18.74
2016-05-20T12:52:42.425Z,18.26
2016-05-20T12:54:41.009Z,17.97
2016-05-20T12:55:41.418Z,18.45
2016-05-20T12:56:41.232Z,18.26
2016-05-20T12:57:42.219Z,18.07
2016-05-20T12:58:41.286Z,17.68
2016-05-20T12:59:41.319Z,17.58
2016-05-20T13:00:41.353Z,17.68
2016-05-20T13:01:41.371Z,17.77
2016-05-20T13:02:41.999Z,18.45
2016-05-20T13:03:41.439Z,17.97
2016-05-20T13:04:41.474Z,18.35
2016-05-20T13:05:41.491Z,18.74
2016-05-20T13:06:41.524Z,18.27
2016-05-20T13:07:42.450Z,18.35
2016-05-20T13:09:41.611Z,18.93
2016-05-20T13:10:41.693Z,19.11
2016-05-20T13:11:41.523Z,18.35
2016-05-20T13:12:42.088Z,18.44
2016-05-20T13:13:41.748Z,18.45
2016-05-20T13:14:41.609Z,18.54
2016-05-20T13:15:41.799Z,18.83
2016-05-20T13:16:41.834Z,18.44
2016-05-20T13:17:43.070Z,18.44
2016-05-20T13:18:41.886Z,18.83
2016-05-20T13:19:56.095Z,19.21
2016-05-20T13:20:41.954Z,19.31
2016-05-20T13:21:41.972Z,19.7
2016-05-20T13:22:44.411Z,20.07
2016-05-20T13:23:42.525Z,20.37
2016-05-20T13:25:42.091Z,20.26
2016-05-20T13:26:42.126Z,20.45
2016-05-20T13:27:43.644Z,20.64
2016-05-20T13:28:42.178Z,20.44
2016-05-20T13:29:42.212Z,20.73
2016-05-20T13:30:42.246Z,19.78
2016-05-20T13:31:42.280Z,20.15
2016-05-20T13:32:44.064Z,19.96
2016-05-20T13:33:42.332Z,20.44
2016-05-20T13:34:42.350Z,20.54
2016-05-20T13:35:56.575Z,20.73
2016-05-20T13:36:42.419Z,20.73
2016-05-20T13:37:42.999Z,21.02
2016-05-20T13:38:42.470Z,20.64
2016-05-20T13:39:42.505Z,20.73
2016-05-20T13:40:42.538Z,20.83
2016-05-20T13:41:42.572Z,20.83
2016-05-20T13:42:44.107Z,21.22
2016-05-20T13:43:42.624Z,20.83
2016-05-20T13:45:42.677Z,20.06
2016-05-20T13:46:42.554Z,20.16
2016-05-20T13:47:42.745Z,20.54
2016-05-20T13:48:42.763Z,20.45
2016-05-20T13:49:42.797Z,20.16
2016-05-20T13:50:42.675Z,19.38
2016-05-20T13:51:57.040Z,19.96
2016-05-20T13:52:43.149Z,19.57
2016-05-20T13:53:42.917Z,19.67
2016-05-20T13:54:42.967Z,20.15
2016-05-20T13:55:42.969Z,20.15